Lampasas, TX (76550)

6:44 PM CST on December 04, 2016 (GMT -0600)
Bates Ranch | | Change Station

Elev 1257 ft 31.05 °N, 98.26 °W | Updated 8 seconds ago

Light Rain
Light Rain Mist
46.5 °F
Feels Like 45 °F
N
4.0
Wind Variable Wind from NE
Gusts 4.0 mph

Today
High -- | Low -- °F
--% Chance of Precip.
Yesterday
High -- | Low -- °F
Precip. -- in
Pressure 30.04 in
Visibility 5.0 miles
Clouds Overcast 1400 ft
Windchill 45 °F
Dew Point 45 °F
Humidity 93%
Rainfall 0.82 in
Snow Depth Not available.
7:16 AM 5:30 PM
Waxing Crescent, 26% visible
SPECI KGRK 050029Z AUTO 01008KT 5SM -RA BR OVC014 09/07 A3004 RMK AO2 RAE14RAB19
Pressure 30.04 in
Visibility 5.0 miles
Clouds Overcast 1400 ft
Windchill 45 °F
Dew Point 45 °F
Humidity 93%
Rainfall 0.82 in
Snow Depth Not available.
7:16 AM 5:30 PM
Waxing Crescent, 26% visible
SPECI KGRK 050029Z AUTO 01008KT 5SM -RA BR OVC014 09/07 A3004 RMK AO2 RAE14RAB19

10-Day Weather Forecast

Almanac

Astronomy

Dec. 04, 2016 Rise Set
Actual Time
Civil Twilight
Nautical Twilight
Astronomical Twilight
Moon
Length of Visible Light
Length of Day
Tomorrow will be .
, % of the Moon is Illuminated

Today's Extremes

State Highs State Lows

Community

WunderPhotos

Upload Photos

1,955,729 photos uploaded!

WunderBlog® & News

Nearby

Air Quality

  Air Quality AQ Index Pollutant
Not available.

Snow Depth

Station Depth Elevation

Earthquake Activity

City Distance Mag. Time & Date
Minimum magnitude displayed is 2.5.

Coastal Water Temperatures

Place Temperature

Stations

Nearby Weather Stations

Station Location Temp. Windchill Dew Point Humidity Wind Precip. Elev Updated Type
                   

Watches & Warnings

There are currently no watches in effect.